createdAt,value
2023-02-02T00:01:42.427Z,27.95
2023-02-02T00:04:12.556Z,26.15
2023-02-02T00:06:39.694Z,24.40
2023-02-02T00:09:06.791Z,25.17
2023-02-02T00:11:34.010Z,18.40
2023-02-02T00:14:01.209Z,19.77
2023-02-02T00:16:28.368Z,26.98
2023-02-02T00:19:01.226Z,20.90
2023-02-02T00:21:28.640Z,24.20
2023-02-02T00:23:55.920Z,22.02
2023-02-02T00:26:23.295Z,26.40
2023-02-02T00:28:50.396Z,24.02
2023-02-02T00:31:17.532Z,21.98
2023-02-02T00:33:45.960Z,21.13
2023-02-02T00:36:13.017Z,25.73
2023-02-02T00:38:40.197Z,27.50
2023-02-02T00:41:07.371Z,31.52
2023-02-02T00:43:34.903Z,22.67
2023-02-02T00:46:02.182Z,29.85
2023-02-02T00:48:29.356Z,26.40
2023-02-02T00:50:57.372Z,29.25
2023-02-02T00:53:24.505Z,21.38
2023-02-02T00:55:51.643Z,20.15
2023-02-02T00:58:18.785Z,24.63
2023-02-02T01:01:18.032Z,23.27
2023-02-02T01:03:45.212Z,29.52
2023-02-02T01:06:13.043Z,22.73
2023-02-02T01:08:40.422Z,23.05
2023-02-02T01:11:08.104Z,16.85
2023-02-02T01:13:35.793Z,25.88
2023-02-02T01:16:03.621Z,21.65
2023-02-02T01:18:31.338Z,25.75
2023-02-02T01:21:03.657Z,21.08
2023-02-02T01:23:31.168Z,25.20
2023-02-02T01:25:59.956Z,23.20
2023-02-02T01:28:27.744Z,23.73
2023-02-02T01:30:55.234Z,24.13
2023-02-02T01:33:23.344Z,15.65
2023-02-02T01:35:52.696Z,23.50
2023-02-02T01:38:20.696Z,25.80
2023-02-02T01:40:53.033Z,22.48
2023-02-02T01:43:41.344Z,16.15
2023-02-02T01:46:13.238Z,22.48
2023-02-02T01:48:43.066Z,26.77
2023-02-02T01:51:14.893Z,27.38
2023-02-02T01:53:42.428Z,20.83
2023-02-02T01:56:12.957Z,23.77
2023-02-02T01:58:41.828Z,25.23
2023-02-02T02:01:09.054Z,22.58
2023-02-02T02:03:37.358Z,19.55
2023-02-02T02:06:10.724Z,19.65
2023-02-02T02:08:58.741Z,21.63
2023-02-02T02:11:26.494Z,23.08
2023-02-02T02:14:14.866Z,18.88
2023-02-02T02:17:19.707Z,25.02
2023-02-02T02:20:36.868Z,23.08
2023-02-02T02:23:37.459Z,22.33
2023-02-02T02:26:39.558Z,20.60
2023-02-02T02:29:28.498Z,28.35
2023-02-02T02:32:01.189Z,15.50
2023-02-02T02:34:52.952Z,24.20
2023-02-02T02:37:40.050Z,22.75
2023-02-02T02:40:07.396Z,22.15
2023-02-02T02:42:39.307Z,21.05
2023-02-02T02:45:07.991Z,22.30
2023-02-02T02:47:36.119Z,28.92
2023-02-02T02:50:04.244Z,19.30
2023-02-02T02:52:32.406Z,27.67
2023-02-02T02:55:01.159Z,18.83
2023-02-02T02:57:58.822Z,19.42
2023-02-02T03:00:48.788Z,27.88
2023-02-02T03:03:22.368Z,24.58
2023-02-02T03:05:57.908Z,18.75
2023-02-02T03:08:33.224Z,15.02
2023-02-02T03:11:02.264Z,18.55
2023-02-02T03:13:29.703Z,16.98
2023-02-02T03:15:56.796Z,17.90
2023-02-02T03:18:27.232Z,16.20
2023-02-02T03:20:54.336Z,20.45
2023-02-02T03:23:21.560Z,15.23
2023-02-02T03:25:48.901Z,20.77
2023-02-02T03:28:17.620Z,16.55
2023-02-02T03:30:46.217Z,20.50
2023-02-02T03:33:14.722Z,19.80
2023-02-02T03:35:42.035Z,15.50
2023-02-02T03:38:09.186Z,23.08
2023-02-02T03:40:36.329Z,14.20
2023-02-02T03:43:03.539Z,13.82
2023-02-02T03:45:32.026Z,11.43
2023-02-02T03:47:59.228Z,18.67
2023-02-02T03:50:26.346Z,14.07
2023-02-02T03:52:54.702Z,19.85
2023-02-02T03:55:22.193Z,17.00
2023-02-02T03:57:49.715Z,13.13
2023-02-02T04:00:17.004Z,18.77
2023-02-02T04:02:44.183Z,17.17
2023-02-02T04:05:11.272Z,15.55
2023-02-02T04:07:38.382Z,13.00
2023-02-02T04:10:05.803Z,15.90
2023-02-02T04:12:32.931Z,12.32
2023-02-02T04:15:00.117Z,15.15
2023-02-02T04:17:27.243Z,13.77
2023-02-02T04:19:58.053Z,18.13
2023-02-02T04:22:26.067Z,19.17
2023-02-02T04:24:53.412Z,15.23
2023-02-02T04:27:20.619Z,17.67
2023-02-02T04:29:47.736Z,15.18
2023-02-02T04:32:16.134Z,16.48
2023-02-02T04:34:43.606Z,15.63
2023-02-02T04:37:11.135Z,11.40
2023-02-02T04:39:38.244Z,11.93
2023-02-02T04:42:06.708Z,18.75
2023-02-02T04:44:33.903Z,16.38
2023-02-02T04:47:01.057Z,17.42
2023-02-02T04:49:28.222Z,15.90
2023-02-02T04:51:55.364Z,19.15
2023-02-02T04:54:22.481Z,11.77
2023-02-02T04:56:49.568Z,18.20
2023-02-02T04:59:16.720Z,20.73
2023-02-02T05:01:43.987Z,11.13
2023-02-02T05:04:11.579Z,19.23
2023-02-02T05:06:38.732Z,19.58
2023-02-02T05:09:05.905Z,18.92
2023-02-02T05:11:33.187Z,9.02
2023-02-02T05:14:00.374Z,17.58
2023-02-02T05:16:29.058Z,19.95
2023-02-02T05:18:59.275Z,17.52
2023-02-02T05:21:26.808Z,14.77
2023-02-02T05:23:54.207Z,16.27
2023-02-02T05:26:23.458Z,12.88
2023-02-02T05:28:50.646Z,20.63
2023-02-02T05:31:18.029Z,10.55
2023-02-02T05:33:45.725Z,14.35
2023-02-02T05:36:13.128Z,21.58
2023-02-02T05:38:40.286Z,19.88
2023-02-02T05:41:07.413Z,18.33
2023-02-02T05:43:34.832Z,16.13
2023-02-02T05:46:02.071Z,21.98
2023-02-02T05:48:29.379Z,18.05
2023-02-02T05:51:01.217Z,15.18
2023-02-02T05:53:30.206Z,11.77
2023-02-02T05:55:57.351Z,14.60
2023-02-02T05:58:24.502Z,12.80
2023-02-02T06:00:51.885Z,13.10
2023-02-02T06:03:19.452Z,11.75
2023-02-02T06:05:46.683Z,15.43
2023-02-02T06:08:13.761Z,20.52
2023-02-02T06:10:41.903Z,8.18
2023-02-02T06:13:09.264Z,11.05
2023-02-02T06:15:36.652Z,12.05
2023-02-02T06:18:06.551Z,11.73
2023-02-02T06:20:34.006Z,14.27
2023-02-02T06:23:01.151Z,14.60
2023-02-02T06:25:28.433Z,17.80
2023-02-02T06:27:59.603Z,19.02
2023-02-02T06:30:27.531Z,22.33
2023-02-02T06:32:54.754Z,16.23
2023-02-02T06:35:21.956Z,16.05
2023-02-02T06:37:49.190Z,17.17
2023-02-02T06:40:16.635Z,21.95
2023-02-02T06:42:43.761Z,16.95
2023-02-02T06:45:11.089Z,25.65
2023-02-02T06:47:38.170Z,19.38
2023-02-02T06:50:05.399Z,21.98
2023-02-02T06:52:32.508Z,9.18
2023-02-02T06:54:59.613Z,22.35
2023-02-02T06:57:26.786Z,8.90
2023-02-02T06:59:53.968Z,14.18
2023-02-02T07:02:23.251Z,17.65
2023-02-02T07:04:51.176Z,16.20
2023-02-02T07:07:18.300Z,13.07
2023-02-02T07:09:45.447Z,13.13
2023-02-02T07:12:12.597Z,15.30
2023-02-02T07:14:39.701Z,16.30
2023-02-02T07:17:06.829Z,17.98
2023-02-02T07:19:35.136Z,15.07
2023-02-02T07:22:02.272Z,15.00
2023-02-02T07:24:29.539Z,13.00
2023-02-02T07:26:57.964Z,16.08
2023-02-02T07:29:25.247Z,20.73
2023-02-02T07:31:52.451Z,17.63
2023-02-02T07:34:19.611Z,16.90
2023-02-02T07:36:46.724Z,15.52
2023-02-02T07:39:13.969Z,16.98
2023-02-02T07:41:41.213Z,12.93
2023-02-02T07:44:15.310Z,15.50
2023-02-02T07:46:43.990Z,13.15
2023-02-02T07:49:14.447Z,17.33
2023-02-02T07:51:46.373Z,14.52
2023-02-02T07:54:15.141Z,15.15
2023-02-02T07:56:42.264Z,11.93
2023-02-02T07:59:10.898Z,12.52
2023-02-02T08:01:38.113Z,13.10
2023-02-02T08:04:05.540Z,13.13
2023-02-02T08:06:35.183Z,10.95
2023-02-02T08:09:04.125Z,23.25
2023-02-02T08:11:31.519Z,19.95
2023-02-02T08:14:00.133Z,16.55
2023-02-02T08:16:28.780Z,20.23
2023-02-02T08:18:56.445Z,20.60
2023-02-02T08:21:24.108Z,14.85
2023-02-02T08:23:52.558Z,14.77
2023-02-02T08:26:28.297Z,18.55
2023-02-02T08:31:43.747Z,12.65
2023-02-02T08:34:12.283Z,29.33
2023-02-02T08:36:39.566Z,19.92
2023-02-02T08:39:09.933Z,18.70
2023-02-02T08:41:37.604Z,18.35
2023-02-02T08:44:11.181Z,14.77
2023-02-02T08:46:38.577Z,17.95
2023-02-02T08:49:05.777Z,17.40
2023-02-02T08:51:32.895Z,15.75
2023-02-02T08:53:59.981Z,18.15
2023-02-02T08:56:27.172Z,15.15
2023-02-02T08:58:56.448Z,13.30
2023-02-02T09:01:24.580Z,22.38
2023-02-02T09:04:00.085Z,19.70
2023-02-02T09:06:40.771Z,13.80
2023-02-02T09:09:10.561Z,19.77
2023-02-02T09:11:37.777Z,14.98
2023-02-02T09:14:06.560Z,11.15
2023-02-02T09:16:34.786Z,18.38
2023-02-02T09:19:02.288Z,20.45
2023-02-02T09:21:30.457Z,12.18
2023-02-02T09:23:57.617Z,16.58
2023-02-02T09:26:26.939Z,13.35
2023-02-02T09:28:56.297Z,16.33
2023-02-02T09:31:24.333Z,11.23
2023-02-02T09:33:51.506Z,16.88
2023-02-02T09:36:21.237Z,13.88
2023-02-02T09:38:49.593Z,17.55
2023-02-02T09:41:16.602Z,14.70
2023-02-02T09:43:55.147Z,11.90
2023-02-02T09:46:45.254Z,7.70
2023-02-02T09:49:16.614Z,16.27
2023-02-02T09:51:49.140Z,14.10
2023-02-02T09:54:21.208Z,24.38
2023-02-02T09:56:51.310Z,19.65
2023-02-02T09:59:24.761Z,18.08
2023-02-02T10:01:58.068Z,13.57
2023-02-02T10:04:40.031Z,17.90
2023-02-02T10:07:20.493Z,11.25
2023-02-02T10:09:59.946Z,14.82
2023-02-02T10:12:47.297Z,12.98
2023-02-02T10:15:18.650Z,9.45
2023-02-02T10:17:57.746Z,13.05
2023-02-02T10:20:44.686Z,19.83
2023-02-02T10:23:38.483Z,17.77
2023-02-02T10:26:19.229Z,12.32
2023-02-02T10:29:08.929Z,11.65
2023-02-02T10:31:49.661Z,15.25
2023-02-02T10:34:31.910Z,14.63
2023-02-02T10:37:34.625Z,19.63
2023-02-02T10:40:10.602Z,12.30
2023-02-02T10:42:45.433Z,8.23
2023-02-02T10:45:18.725Z,18.37
2023-02-02T10:47:45.849Z,9.85
2023-02-02T10:50:13.055Z,11.52
2023-02-02T10:52:46.565Z,8.30
2023-02-02T10:55:19.456Z,13.85
2023-02-02T10:58:03.212Z,12.02
2023-02-02T11:00:46.223Z,15.73
2023-02-02T11:03:15.108Z,12.60
2023-02-02T11:06:01.386Z,16.30
2023-02-02T11:08:33.178Z,18.13
2023-02-02T11:11:22.469Z,14.93
2023-02-02T11:13:51.980Z,10.98
2023-02-02T11:16:22.039Z,13.35
2023-02-02T11:18:49.451Z,11.98
2023-02-02T11:21:29.815Z,8.18
2023-02-02T11:24:03.659Z,9.52
2023-02-02T11:26:48.957Z,9.68
2023-02-02T11:29:33.742Z,11.57
2023-02-02T11:32:27.383Z,9.27
2023-02-02T11:35:06.435Z,10.13
2023-02-02T11:37:53.048Z,21.88
2023-02-02T11:40:24.331Z,17.75
2023-02-02T11:42:53.068Z,7.90
2023-02-02T11:45:35.343Z,11.43
2023-02-02T11:48:08.189Z,8.10
2023-02-02T11:50:35.501Z,10.45
2023-02-02T11:53:02.753Z,11.85
2023-02-02T11:55:31.544Z,12.05
2023-02-02T11:58:18.324Z,11.93
2023-02-02T12:00:54.695Z,11.70
2023-02-02T12:03:39.140Z,10.98
2023-02-02T12:06:27.670Z,14.65
2023-02-02T12:09:01.253Z,11.57
2023-02-02T12:11:52.789Z,8.95
2023-02-02T12:15:03.014Z,11.63
2023-02-02T12:17:44.637Z,7.78
2023-02-02T12:20:49.258Z,9.38
2023-02-02T12:23:34.931Z,12.80
2023-02-02T12:26:10.874Z,11.90
2023-02-02T12:28:49.609Z,10.07
2023-02-02T12:31:16.733Z,8.70
2023-02-02T12:34:01.963Z,12.45
2023-02-02T12:36:38.698Z,7.93
2023-02-02T12:39:24.321Z,8.20
2023-02-02T12:42:13.432Z,13.40
2023-02-02T12:44:50.973Z,10.02
2023-02-02T12:47:28.356Z,8.25
2023-02-02T12:50:12.023Z,9.07
2023-02-02T12:52:45.072Z,8.10
2023-02-02T12:55:24.952Z,6.72
2023-02-02T12:58:06.313Z,13.98
2023-02-02T13:00:50.240Z,12.98
2023-02-02T13:03:27.710Z,5.97
2023-02-02T13:06:53.887Z,7.10
2023-02-02T13:09:27.484Z,6.18
2023-02-02T13:12:01.134Z,7.15
2023-02-02T13:14:57.476Z,10.23
2023-02-02T13:17:41.084Z,11.98
2023-02-02T13:20:21.457Z,7.63
2023-02-02T13:22:52.091Z,6.28
2023-02-02T13:25:27.035Z,5.40
2023-02-02T13:27:54.832Z,4.43
2023-02-02T13:30:31.755Z,8.93
2023-02-02T13:33:01.348Z,9.35
2023-02-02T13:35:36.778Z,9.70
2023-02-02T13:38:22.432Z,9.63
2023-02-02T13:40:50.665Z,8.50
2023-02-02T13:43:21.772Z,11.57
2023-02-02T13:46:24.237Z,5.13
2023-02-02T13:49:02.036Z,6.55
2023-02-02T13:51:54.725Z,4.97
2023-02-02T13:55:02.498Z,9.57
2023-02-02T13:57:52.863Z,8.95
2023-02-02T14:00:24.249Z,6.70
2023-02-02T14:02:55.376Z,3.53
2023-02-02T14:05:22.529Z,3.95
2023-02-02T14:08:01.916Z,5.20
2023-02-02T14:10:42.663Z,3.72
2023-02-02T14:13:36.673Z,5.10
2023-02-02T14:16:06.074Z,3.90
2023-02-02T14:18:51.387Z,6.50
2023-02-02T14:21:33.498Z,5.60
2023-02-02T14:24:05.024Z,6.68
2023-02-02T14:26:48.525Z,4.70
2023-02-02T14:29:35.947Z,5.45
2023-02-02T14:32:06.681Z,4.65
2023-02-02T14:34:39.264Z,6.10
2023-02-02T14:37:24.525Z,3.15
2023-02-02T14:40:06.474Z,4.97
2023-02-02T14:42:58.038Z,5.68
2023-02-02T14:45:51.156Z,5.20
2023-02-02T14:48:23.894Z,4.45
2023-02-02T14:50:58.463Z,7.35
2023-02-02T14:53:29.354Z,4.05
2023-02-02T14:56:05.426Z,4.65
2023-02-02T14:58:43.900Z,5.25
2023-02-02T15:01:25.420Z,4.65
2023-02-02T15:04:14.103Z,3.38
2023-02-02T15:06:43.033Z,7.13
2023-02-02T15:09:29.052Z,5.82
2023-02-02T15:12:00.819Z,4.30
2023-02-02T15:14:34.214Z,7.63
2023-02-02T15:17:20.241Z,6.13
2023-02-02T15:20:05.300Z,8.25
2023-02-02T15:22:43.068Z,6.95
2023-02-02T15:25:31.352Z,5.07
2023-02-02T15:28:01.407Z,5.00
2023-02-02T15:30:33.503Z,3.97
2023-02-02T15:33:08.036Z,5.15
2023-02-02T15:35:37.940Z,6.07
2023-02-02T15:38:07.360Z,8.35
2023-02-02T15:40:36.497Z,2.75
2023-02-02T15:43:06.217Z,4.75
2023-02-02T15:45:54.737Z,4.43
2023-02-02T15:48:30.118Z,5.70
2023-02-02T15:51:00.442Z,4.38
2023-02-02T15:53:28.749Z,3.42
2023-02-02T15:55:57.274Z,4.47
2023-02-02T15:58:32.772Z,3.95
2023-02-02T16:01:05.728Z,8.18
2023-02-02T16:03:46.811Z,5.43
2023-02-02T16:06:13.931Z,4.55
2023-02-02T16:08:41.842Z,5.50
2023-02-02T16:11:12.626Z,3.78
2023-02-02T16:13:40.626Z,7.10
2023-02-02T16:16:22.792Z,5.60
2023-02-02T16:19:05.395Z,5.15
2023-02-02T16:21:33.260Z,5.57
2023-02-02T16:24:00.753Z,6.70
2023-02-02T16:26:29.664Z,7.28
2023-02-02T16:28:57.087Z,8.00
2023-02-02T16:31:24.777Z,8.70
2023-02-02T16:33:51.955Z,7.38
2023-02-02T16:36:29.526Z,7.32
2023-02-02T16:38:58.315Z,11.80
2023-02-02T16:41:29.998Z,8.80
2023-02-02T16:44:35.647Z,6.05
2023-02-02T16:47:04.406Z,5.65
2023-02-02T16:49:31.575Z,3.90
2023-02-02T16:52:09.322Z,5.18
2023-02-02T16:54:36.674Z,7.13
2023-02-02T16:57:04.327Z,7.78
2023-02-02T16:59:33.931Z,5.05
2023-02-02T17:02:26.521Z,4.10
2023-02-02T17:05:05.964Z,7.25
2023-02-02T17:07:35.039Z,7.30
2023-02-02T17:10:19.243Z,6.63
2023-02-02T17:12:46.433Z,6.18
2023-02-02T17:15:16.414Z,7.32
2023-02-02T17:17:48.367Z,5.00
2023-02-02T17:20:16.888Z,6.80
2023-02-02T17:22:46.716Z,4.72
2023-02-02T17:25:18.773Z,7.65
2023-02-02T17:27:46.530Z,4.78
2023-02-02T17:30:16.854Z,8.00
2023-02-02T17:32:44.171Z,5.50
2023-02-02T17:35:16.496Z,7.93
2023-02-02T17:37:43.829Z,3.80
2023-02-02T17:40:17.426Z,6.38
2023-02-02T17:42:45.481Z,6.88
2023-02-02T17:45:24.808Z,3.75
2023-02-02T17:47:52.263Z,6.40
2023-02-02T17:50:20.680Z,6.97
2023-02-02T17:52:49.624Z,4.40
2023-02-02T17:55:23.821Z,3.97
2023-02-02T17:57:52.194Z,3.90
2023-02-02T18:00:22.423Z,7.00
2023-02-02T18:02:51.994Z,6.38
2023-02-02T18:05:19.443Z,6.53
2023-02-02T18:07:46.853Z,7.60
2023-02-02T18:10:14.904Z,6.18
2023-02-02T18:12:42.348Z,11.00
2023-02-02T18:15:13.156Z,7.65
2023-02-02T18:17:40.900Z,8.13
2023-02-02T18:20:09.108Z,7.82
2023-02-02T18:22:36.252Z,7.35
2023-02-02T18:25:04.849Z,12.00
2023-02-02T18:27:32.195Z,6.57
2023-02-02T18:29:59.336Z,5.55
2023-02-02T18:32:26.575Z,6.75
2023-02-02T18:34:55.942Z,10.07
2023-02-02T18:37:25.672Z,10.10
2023-02-02T18:39:53.899Z,6.18
2023-02-02T18:42:21.171Z,10.45
2023-02-02T18:44:48.316Z,9.20
2023-02-02T18:47:15.456Z,8.15
2023-02-02T18:49:42.653Z,9.13
2023-02-02T18:52:09.787Z,7.32
2023-02-02T18:54:37.065Z,7.25
2023-02-02T18:57:04.140Z,7.60
2023-02-02T18:59:32.249Z,8.43
2023-02-02T19:01:59.502Z,8.70
2023-02-02T19:04:26.668Z,6.97
2023-02-02T19:07:12.593Z,12.32
2023-02-02T19:09:39.871Z,7.60
2023-02-02T19:12:14.011Z,12.80
2023-02-02T19:14:42.413Z,9.00
2023-02-02T19:17:24.533Z,13.15
2023-02-02T19:19:51.935Z,9.23
2023-02-02T19:22:23.672Z,7.55
2023-02-02T19:24:51.218Z,10.43
2023-02-02T19:27:26.604Z,12.45
2023-02-02T19:29:56.213Z,12.20
2023-02-02T19:32:25.720Z,10.18
2023-02-02T19:34:54.285Z,10.40
2023-02-02T19:37:29.159Z,16.63
2023-02-02T19:40:08.211Z,25.10
2023-02-02T19:42:37.755Z,20.15
2023-02-02T19:45:21.255Z,23.13
2023-02-02T19:47:51.058Z,18.40
2023-02-02T19:50:22.796Z,17.30
2023-02-02T19:52:50.426Z,16.38
2023-02-02T19:55:28.306Z,16.38
2023-02-02T19:58:01.346Z,11.77
2023-02-02T20:00:30.176Z,22.45
2023-02-02T20:03:02.507Z,19.17
2023-02-02T20:05:39.810Z,23.40
2023-02-02T20:08:12.865Z,28.90
2023-02-02T20:10:44.398Z,20.08
2023-02-02T20:13:42.591Z,22.75
2023-02-02T20:16:19.026Z,20.95
2023-02-02T20:18:53.742Z,23.30
2023-02-02T20:21:41.687Z,21.38
2023-02-02T20:24:18.831Z,16.02
2023-02-02T20:26:46.411Z,16.90
2023-02-02T20:29:18.151Z,14.05
2023-02-02T20:31:46.510Z,13.35
2023-02-02T20:34:33.616Z,14.38
2023-02-02T20:37:12.573Z,16.23
2023-02-02T20:39:49.851Z,16.80
2023-02-02T20:42:17.051Z,12.55
2023-02-02T20:44:44.264Z,10.32
2023-02-02T20:47:11.444Z,13.18
2023-02-02T20:49:39.222Z,14.25
2023-02-02T20:52:10.928Z,13.38
2023-02-02T20:54:38.987Z,11.35
2023-02-02T20:57:06.284Z,10.40
2023-02-02T20:59:33.460Z,10.40
2023-02-02T21:02:00.744Z,11.77
2023-02-02T21:04:28.310Z,11.13
2023-02-02T21:06:55.506Z,11.00
2023-02-02T21:09:22.708Z,13.00
2023-02-02T21:11:49.809Z,10.00
2023-02-02T21:14:17.035Z,9.90
2023-02-02T21:16:44.266Z,13.95
2023-02-02T21:19:11.472Z,13.15
2023-02-02T21:21:38.742Z,14.68
2023-02-02T21:24:05.936Z,10.38
2023-02-02T21:26:33.212Z,14.85
2023-02-02T21:29:00.342Z,14.60
2023-02-02T21:31:27.774Z,11.98
2023-02-02T21:33:54.974Z,11.73
2023-02-02T21:36:44.639Z,10.18
2023-02-02T21:39:21.919Z,16.13
2023-02-02T21:41:50.222Z,18.10
2023-02-02T21:44:20.109Z,16.00
2023-02-02T21:46:49.117Z,19.30
2023-02-02T21:49:21.552Z,21.33
2023-02-02T21:51:48.692Z,16.33
2023-02-02T21:54:21.645Z,17.55
2023-02-02T21:56:49.219Z,13.60
2023-02-02T21:59:19.008Z,16.80
2023-02-02T22:01:48.268Z,14.25
2023-02-02T22:04:25.536Z,14.65
2023-02-02T22:06:55.018Z,13.90
2023-02-02T22:09:25.228Z,14.18
2023-02-02T22:11:56.533Z,14.57
2023-02-02T22:14:41.309Z,14.57
2023-02-02T22:17:37.698Z,13.98
2023-02-02T22:20:17.989Z,12.45
2023-02-02T22:22:47.409Z,16.63
2023-02-02T22:25:24.018Z,16.95
2023-02-02T22:27:53.436Z,13.98
2023-02-02T22:30:26.424Z,14.18
2023-02-02T22:32:58.115Z,17.02
2023-02-02T22:35:28.707Z,17.35
2023-02-02T22:37:56.533Z,17.08
2023-02-02T22:40:26.351Z,10.80
2023-02-02T22:43:00.935Z,11.70
2023-02-02T22:45:29.641Z,18.00
2023-02-02T22:47:57.947Z,19.35
2023-02-02T22:50:29.455Z,13.70
2023-02-02T22:52:57.258Z,14.05
2023-02-02T22:55:24.960Z,15.02
2023-02-02T22:57:53.024Z,10.98
2023-02-02T23:00:46.184Z,13.38
2023-02-02T23:03:16.895Z,10.65
2023-02-02T23:05:44.498Z,13.35
2023-02-02T23:08:12.248Z,13.77
2023-02-02T23:11:13.195Z,10.88
2023-02-02T23:13:40.794Z,13.43
2023-02-02T23:17:05.881Z,13.07
2023-02-02T23:19:44.510Z,12.57
2023-02-02T23:22:12.031Z,18.90
2023-02-02T23:24:42.505Z,10.80
2023-02-02T23:27:10.326Z,17.27
2023-02-02T23:29:38.035Z,11.13
2023-02-02T23:32:06.091Z,14.70
2023-02-02T23:34:34.460Z,16.55
2023-02-02T23:37:02.042Z,11.68
2023-02-02T23:39:29.921Z,17.25
2023-02-02T23:42:04.978Z,15.02
2023-02-02T23:44:41.525Z,18.27
2023-02-02T23:47:09.621Z,14.32
2023-02-02T23:49:37.697Z,15.40
2023-02-02T23:52:05.795Z,15.35
2023-02-02T23:54:53.199Z,21.65
2023-02-02T23:57:21.160Z,10.00
2023-02-02T23:59:48.896Z,13.45
